Terminal Aerodrome Forecast
Issued by NWS

Home | Current Version | Previous Version | Text Only | Print | Product List | Glossary Off
Versions: 1 2 3 4 5 6 7 8 9 10 11 12 13 14 15 16 17 18 19

368
FTUS43 KTOP 212337
TAFFOE
TAF
KFOE 212337Z 2200/2224 20005KT P6SM SKC
     FM221500 20011KT P6SM FEW200
     FM221800 21013G21KT P6SM FEW250=

USA.gov is the U.S. government's official web portal to all federal, state and local government web resources and services.